createdAt,value
2022-09-05T00:00:17.040Z,6.40
2022-09-05T00:01:17.025Z,7.90
2022-09-05T00:02:17.006Z,6.10
2022-09-05T00:03:17.170Z,6.40
2022-09-05T00:04:24.290Z,7.00
2022-09-05T00:05:16.967Z,6.70
2022-09-05T00:06:16.943Z,8.60
2022-09-05T00:07:32.948Z,7.50
2022-09-05T00:08:16.910Z,5.90
2022-09-05T00:10:09.358Z,9.70
2022-09-05T00:11:42.932Z,6.20
2022-09-05T00:12:09.323Z,6.60
2022-09-05T00:13:09.305Z,6.80
2022-09-05T00:14:09.288Z,7.50
2022-09-05T00:15:18.322Z,6.50
2022-09-05T00:17:09.268Z,7.30
2022-09-05T00:24:22.491Z,10.10
2022-09-05T00:24:22.616Z,8.50
2022-09-05T00:24:28.562Z,8.10
2022-09-05T00:24:29.348Z,6.40
2022-09-05T00:24:32.022Z,8.80
2022-09-05T00:25:36.515Z,7.90
2022-09-05T00:26:09.533Z,7.50
2022-09-05T00:27:09.077Z,8.50
2022-09-05T00:28:26.484Z,8.40
2022-09-05T00:29:09.045Z,8.00
2022-09-05T00:31:08.580Z,6.70
2022-09-05T00:32:09.119Z,6.30
2022-09-05T00:33:17.613Z,9.70
2022-09-05T00:34:08.963Z,8.20
2022-09-05T00:35:08.947Z,9.80
2022-09-05T00:36:08.928Z,7.70
2022-09-05T00:37:08.911Z,6.90
2022-09-05T00:38:08.895Z,7.50
2022-09-05T00:39:08.881Z,9.00
2022-09-05T00:40:17.434Z,8.70
2022-09-05T00:41:08.849Z,9.50
2022-09-05T00:42:08.830Z,7.90
2022-09-05T00:43:08.815Z,6.60
2022-09-05T00:44:08.800Z,7.90
2022-09-05T00:45:19.571Z,7.20
2022-09-05T00:46:08.816Z,7.70
2022-09-05T00:47:08.750Z,6.40
2022-09-05T00:48:08.735Z,7.00
2022-09-05T00:49:08.715Z,8.00
2022-09-05T00:50:08.699Z,9.40
2022-09-05T00:51:08.688Z,7.00
2022-09-05T00:52:08.669Z,6.90
2022-09-05T00:53:08.652Z,8.80
2022-09-05T00:54:08.632Z,7.50
2022-09-05T00:55:08.618Z,7.70
2022-09-05T00:56:08.604Z,7.10
2022-09-05T00:57:08.586Z,6.90
2022-09-05T00:58:08.566Z,6.40
2022-09-05T00:59:08.553Z,8.10
2022-09-05T01:00:08.536Z,6.80
2022-09-05T01:01:20.816Z,9.70
2022-09-05T01:02:08.646Z,8.00
2022-09-05T01:03:08.606Z,8.30
2022-09-05T01:04:08.470Z,9.40
2022-09-05T01:05:08.453Z,7.30
2022-09-05T01:06:08.434Z,7.00
2022-09-05T01:07:08.420Z,9.40
2022-09-05T01:08:08.403Z,5.50
2022-09-05T01:09:08.594Z,8.70
2022-09-05T01:10:08.371Z,5.80
2022-09-05T01:11:08.355Z,5.80
2022-09-05T01:12:08.339Z,6.70
2022-09-05T01:13:08.320Z,7.70
2022-09-05T01:14:10.729Z,6.80
2022-09-05T01:15:08.292Z,5.90
2022-09-05T01:16:08.364Z,5.90
2022-09-05T01:17:08.255Z,7.20
2022-09-05T01:18:08.240Z,6.40
2022-09-05T01:19:08.223Z,5.50
2022-09-05T01:20:18.849Z,7.80
2022-09-05T01:21:08.190Z,7.20
2022-09-05T01:22:08.174Z,6.90
2022-09-05T01:23:08.817Z,9.30
2022-09-05T01:24:08.140Z,6.00
2022-09-05T01:25:08.126Z,9.90
2022-09-05T01:26:08.113Z,6.10
2022-09-05T01:27:08.091Z,6.90
2022-09-05T01:29:15.632Z,7.40
2022-09-05T01:29:15.737Z,7.40
2022-09-05T01:30:08.040Z,9.90
2022-09-05T01:31:08.083Z,8.80
2022-09-05T01:32:08.012Z,6.80
2022-09-05T01:33:07.994Z,9.40
2022-09-05T01:34:07.974Z,9.70
2022-09-05T01:35:07.958Z,13.60
2022-09-05T01:36:07.943Z,12.20
2022-09-05T01:37:07.926Z,9.70
2022-09-05T01:38:07.908Z,9.50
2022-09-05T01:40:14.413Z,8.70
2022-09-05T01:40:14.683Z,8.70
2022-09-05T01:41:18.941Z,8.60
2022-09-05T01:42:07.840Z,7.90
2022-09-05T01:43:07.827Z,9.50
2022-09-05T01:44:07.810Z,8.50
2022-09-05T01:45:07.796Z,8.50
2022-09-05T01:46:09.006Z,8.70
2022-09-05T01:47:08.355Z,8.00
2022-09-05T01:48:07.742Z,7.80
2022-09-05T01:49:07.726Z,9.30
2022-09-05T01:50:07.708Z,8.90
2022-09-05T01:51:08.772Z,10.20
2022-09-05T01:52:07.678Z,12.40
2022-09-05T01:53:07.661Z,9.30
2022-09-05T01:54:07.644Z,7.00
2022-09-05T01:55:07.634Z,8.90
2022-09-05T01:56:10.377Z,13.60
2022-09-05T01:57:07.595Z,8.90
2022-09-05T01:58:07.576Z,9.90
2022-09-05T01:59:07.562Z,9.20
2022-09-05T02:00:07.546Z,8.70
2022-09-05T02:01:25.188Z,8.60
2022-09-05T02:02:07.563Z,8.00
2022-09-05T02:03:07.544Z,7.70
2022-09-05T02:04:07.478Z,10.40
2022-09-05T02:05:07.462Z,7.30
2022-09-05T02:06:07.443Z,8.40
2022-09-05T02:07:19.870Z,8.00
2022-09-05T02:08:07.410Z,7.30
2022-09-05T02:09:07.395Z,6.90
2022-09-05T02:10:07.834Z,8.20
2022-09-05T02:11:07.359Z,8.40
2022-09-05T02:12:07.345Z,8.20
2022-09-05T02:13:07.325Z,8.90
2022-09-05T02:14:07.310Z,8.60
2022-09-05T02:15:07.293Z,9.50
2022-09-05T02:16:07.325Z,10.10
2022-09-05T02:17:07.267Z,8.60
2022-09-05T02:18:07.242Z,9.20
2022-09-05T02:19:07.234Z,8.30
2022-09-05T02:20:07.208Z,10.20
2022-09-05T02:21:07.194Z,10.40
2022-09-05T02:22:07.175Z,11.20
2022-09-05T02:23:25.960Z,9.00
2022-09-05T02:24:07.143Z,13.00
2022-09-05T02:25:27.751Z,10.10
2022-09-05T02:26:07.113Z,10.60
2022-09-05T02:27:07.093Z,11.40
2022-09-05T02:28:07.074Z,8.40
2022-09-05T02:29:07.061Z,9.90
2022-09-05T02:30:07.042Z,8.60
2022-09-05T02:31:19.907Z,10.00
2022-09-05T02:32:07.009Z,9.60
2022-09-05T02:33:07.000Z,11.10
2022-09-05T02:34:06.974Z,9.80
2022-09-05T02:35:06.960Z,9.80
2022-09-05T02:36:06.942Z,9.90
2022-09-05T02:37:06.926Z,9.50
2022-09-05T02:43:51.842Z,7.70
2022-09-05T02:44:27.118Z,9.50
2022-09-05T02:45:06.638Z,9.40
2022-09-05T02:45:06.887Z,9.80
2022-09-05T02:45:08.135Z,8.60
2022-09-05T02:45:18.520Z,7.90
2022-09-05T02:45:18.589Z,9.00
2022-09-05T02:45:25.447Z,8.90
2022-09-05T02:46:06.846Z,8.70
2022-09-05T02:47:06.819Z,8.30
2022-09-05T02:48:15.700Z,8.40
2022-09-05T02:49:17.691Z,7.80
2022-09-05T02:57:18.908Z,8.20
2022-09-05T02:57:23.365Z,8.40
2022-09-05T02:57:25.778Z,9.80
2022-09-05T02:57:33.109Z,8.90
2022-09-05T02:57:34.738Z,8.90
2022-09-05T02:57:35.334Z,10.30
2022-09-05T02:57:37.038Z,10.20
2022-09-05T02:57:39.465Z,8.70
2022-09-05T02:58:08.824Z,8.80
2022-09-05T02:59:10.071Z,8.60
2022-09-05T03:00:06.541Z,8.80
2022-09-05T03:01:06.572Z,8.80
2022-09-05T03:02:24.901Z,8.40
2022-09-05T03:03:06.526Z,12.10
2022-09-05T03:04:06.470Z,8.90
2022-09-05T03:05:06.455Z,11.00
2022-09-05T03:06:06.437Z,8.30
2022-09-05T03:07:06.423Z,9.00
2022-09-05T03:08:06.405Z,8.40
2022-09-05T03:09:09.831Z,9.40
2022-09-05T03:10:06.372Z,12.00
2022-09-05T03:11:06.355Z,8.20
2022-09-05T03:12:29.538Z,9.40
2022-09-05T03:13:06.321Z,8.50
2022-09-05T03:14:06.305Z,9.70
2022-09-05T03:15:18.676Z,9.00
2022-09-05T03:16:06.269Z,9.70
2022-09-05T03:17:06.292Z,8.70
2022-09-05T03:18:20.780Z,8.20
2022-09-05T03:19:06.224Z,9.00
2022-09-05T03:20:06.205Z,9.00
2022-09-05T03:21:09.423Z,8.50
2022-09-05T03:22:06.166Z,8.80
2022-09-05T03:23:06.153Z,9.50
2022-09-05T03:24:06.132Z,8.00
2022-09-05T03:25:06.118Z,10.40
2022-09-05T03:26:06.105Z,8.20
2022-09-05T03:27:06.084Z,9.50
2022-09-05T03:28:06.069Z,10.20
2022-09-05T03:29:06.051Z,9.40
2022-09-05T03:30:06.031Z,14.80
2022-09-05T03:31:06.068Z,11.40
2022-09-05T03:32:05.998Z,9.00
2022-09-05T03:33:05.985Z,10.00
2022-09-05T03:34:05.962Z,8.50
2022-09-05T03:35:08.678Z,8.80
2022-09-05T03:36:05.930Z,8.60
2022-09-05T03:37:05.915Z,9.70
2022-09-05T03:38:05.898Z,9.10
2022-09-05T03:39:05.880Z,9.40
2022-09-05T03:40:15.892Z,9.00
2022-09-05T03:41:05.848Z,8.80
2022-09-05T03:42:05.829Z,10.70
2022-09-05T03:43:05.816Z,10.20
2022-09-05T03:44:05.795Z,10.60
2022-09-05T03:45:05.779Z,9.50
2022-09-05T03:46:05.780Z,11.00
2022-09-05T03:47:05.745Z,10.00
2022-09-05T03:48:27.797Z,8.50
2022-09-05T03:50:07.472Z,9.30
2022-09-05T03:53:57.103Z,10.00
2022-09-05T03:57:06.564Z,11.10
2022-09-05T03:57:12.028Z,10.90
2022-09-05T03:57:13.300Z,9.60
2022-09-05T03:57:17.061Z,9.30
2022-09-05T03:57:18.177Z,10.20
2022-09-05T03:57:24.064Z,11.20
2022-09-05T03:57:32.621Z,10.90
2022-09-05T03:58:16.233Z,10.10
2022-09-05T03:59:05.540Z,14.80
2022-09-05T04:00:05.525Z,10.30
2022-09-05T04:01:35.855Z,10.60
2022-09-05T04:08:06.516Z,10.40
2022-09-05T04:08:08.536Z,10.90
2022-09-05T04:08:10.372Z,10.50
2022-09-05T04:08:16.280Z,9.90
2022-09-05T04:08:16.282Z,12.30
2022-09-05T04:08:17.419Z,10.30
2022-09-05T04:08:17.421Z,12.50
2022-09-05T04:09:05.538Z,10.40
2022-09-05T04:10:05.487Z,12.60
2022-09-05T04:11:05.385Z,11.10
2022-09-05T04:12:05.316Z,10.10
2022-09-05T04:13:05.302Z,10.70
2022-09-05T04:14:05.283Z,10.20
2022-09-05T04:15:05.266Z,10.20
2022-09-05T04:16:05.249Z,10.60
2022-09-05T04:17:05.232Z,10.00
2022-09-05T04:18:05.229Z,10.10
2022-09-05T04:19:05.200Z,11.10
2022-09-05T04:20:05.180Z,10.20
2022-09-05T04:21:05.167Z,13.00
2022-09-05T04:22:05.150Z,10.10
2022-09-05T04:23:05.149Z,12.20
2022-09-05T04:24:05.123Z,10.20
2022-09-05T04:25:05.096Z,11.90
2022-09-05T04:26:11.379Z,10.30
2022-09-05T04:27:05.063Z,11.10
2022-09-05T04:28:05.045Z,10.90
2022-09-05T04:29:05.024Z,14.30
2022-09-05T04:30:05.044Z,13.50
2022-09-05T04:31:04.995Z,12.00
2022-09-05T04:32:17.645Z,15.00
2022-09-05T04:33:04.957Z,13.20
2022-09-05T04:34:04.943Z,12.30
2022-09-05T04:35:04.924Z,10.30
2022-09-05T04:36:12.022Z,13.70
2022-09-05T04:37:04.888Z,12.30
2022-09-05T04:38:04.872Z,12.10
2022-09-05T04:39:04.856Z,12.20
2022-09-05T04:40:04.906Z,12.40
2022-09-05T04:41:04.822Z,12.60
2022-09-05T04:42:04.806Z,16.20
2022-09-05T04:43:04.787Z,14.60
2022-09-05T04:44:04.771Z,13.30
2022-09-05T04:45:04.751Z,13.00
2022-09-05T04:46:04.778Z,12.30
2022-09-05T04:47:04.720Z,14.00
2022-09-05T04:48:04.702Z,11.90
2022-09-05T04:49:04.682Z,11.30
2022-09-05T04:50:04.668Z,11.50
2022-09-05T04:51:04.647Z,12.50
2022-09-05T04:52:04.631Z,13.40
2022-09-05T04:53:04.615Z,15.00
2022-09-05T04:54:04.597Z,15.90
2022-09-05T04:55:04.580Z,14.60
2022-09-05T04:56:04.566Z,14.20
2022-09-05T04:57:13.904Z,15.10
2022-09-05T04:58:04.531Z,17.50
2022-09-05T05:01:22.721Z,17.10
2022-09-05T05:05:59.921Z,14.10
2022-09-05T05:06:05.977Z,13.60
2022-09-05T05:06:08.722Z,13.60
2022-09-05T05:06:09.763Z,13.20
2022-09-05T05:06:11.231Z,13.90
2022-09-05T05:06:17.745Z,14.70
2022-09-05T05:06:31.482Z,14.30
2022-09-05T05:07:07.808Z,14.20
2022-09-05T05:08:04.582Z,12.80
2022-09-05T05:09:04.338Z,13.50
2022-09-05T05:11:51.109Z,14.70
2022-09-05T05:15:29.408Z,12.50
2022-09-05T05:16:23.847Z,14.80
2022-09-05T05:17:57.193Z,15.60
2022-09-05T05:18:00.262Z,19.10
2022-09-05T05:18:07.468Z,13.10
2022-09-05T05:18:07.631Z,12.50
2022-09-05T05:18:08.469Z,14.20
2022-09-05T05:18:49.143Z,13.30
2022-09-05T05:19:16.959Z,12.90
2022-09-05T05:20:42.454Z,14.40
2022-09-05T05:21:04.149Z,13.30
2022-09-05T05:22:04.113Z,13.30
2022-09-05T05:23:07.377Z,13.20
2022-09-05T05:24:04.078Z,13.10
2022-09-05T05:25:04.058Z,12.70
2022-09-05T05:26:04.043Z,12.30
2022-09-05T05:27:04.025Z,12.10
2022-09-05T05:28:14.999Z,11.60
2022-09-05T05:29:03.988Z,14.50
2022-09-05T05:30:03.975Z,13.90
2022-09-05T05:31:03.958Z,16.60
2022-09-05T05:32:04.065Z,14.90
2022-09-05T05:33:03.920Z,14.00
2022-09-05T05:34:11.919Z,11.50
2022-09-05T05:35:03.916Z,11.70
2022-09-05T05:36:03.872Z,11.80
2022-09-05T05:37:03.850Z,19.10
2022-09-05T05:38:03.836Z,20.70
2022-09-05T05:39:03.816Z,13.10
2022-09-05T05:40:03.866Z,13.80
2022-09-05T05:41:03.782Z,18.60
2022-09-05T05:42:19.396Z,15.00
2022-09-05T05:43:03.748Z,14.00
2022-09-05T05:44:03.731Z,13.40
2022-09-05T05:45:03.713Z,13.90
2022-09-05T05:46:03.747Z,12.00
2022-09-05T05:47:03.676Z,15.80
2022-09-05T05:48:03.661Z,13.60
2022-09-05T05:49:03.641Z,15.50
2022-09-05T05:50:03.632Z,13.60
2022-09-05T05:51:03.610Z,13.80
2022-09-05T05:52:03.603Z,15.40
2022-09-05T05:53:03.569Z,13.90
2022-09-05T05:54:03.556Z,14.70
2022-09-05T05:55:27.113Z,14.10
2022-09-05T05:56:03.521Z,12.40
2022-09-05T05:57:14.819Z,13.90
2022-09-05T05:58:03.489Z,17.80
2022-09-05T05:59:03.467Z,14.70
2022-09-05T06:00:03.453Z,18.40
2022-09-05T06:01:03.432Z,13.60
2022-09-05T06:02:03.507Z,13.20
2022-09-05T06:03:25.908Z,17.80
2022-09-05T06:04:03.382Z,12.90
2022-09-05T06:05:04.298Z,13.30
2022-09-05T06:06:03.347Z,14.90
2022-09-05T06:07:03.328Z,17.30
2022-09-05T06:10:52.563Z,15.50
2022-09-05T06:14:38.850Z,14.80
2022-09-05T06:14:50.873Z,13.50
2022-09-05T06:14:52.303Z,16.30
2022-09-05T06:14:57.019Z,17.30
2022-09-05T06:14:59.699Z,18.10
2022-09-05T06:15:04.903Z,13.40
2022-09-05T06:15:10.483Z,15.90
2022-09-05T06:16:06.528Z,13.40
2022-09-05T06:17:03.156Z,18.70
2022-09-05T06:18:03.139Z,15.30
2022-09-05T06:19:03.121Z,13.20
2022-09-05T06:21:32.975Z,13.90
2022-09-05T06:22:08.619Z,15.20
2022-09-05T06:22:10.393Z,14.20
2022-09-05T06:23:03.050Z,17.00
2022-09-05T06:24:03.036Z,17.80
2022-09-05T06:25:17.061Z,13.80
2022-09-05T06:26:02.999Z,18.20
2022-09-05T06:27:02.981Z,15.80
2022-09-05T06:28:19.143Z,13.90
2022-09-05T06:29:02.947Z,14.80
2022-09-05T06:30:02.930Z,17.70
2022-09-05T06:31:28.937Z,15.50
2022-09-05T06:32:02.947Z,13.50
2022-09-05T06:33:02.879Z,14.30
2022-09-05T06:34:02.860Z,16.10
2022-09-05T06:35:02.843Z,14.80
2022-09-05T06:36:04.387Z,13.90
2022-09-05T06:37:02.827Z,14.80
2022-09-05T06:38:02.793Z,15.50
2022-09-05T06:39:02.770Z,16.40
2022-09-05T06:40:02.876Z,17.00
2022-09-05T06:41:02.781Z,17.20
2022-09-05T06:42:02.721Z,17.60
2022-09-05T06:43:02.710Z,16.40
2022-09-05T06:44:02.709Z,15.60
2022-09-05T06:45:21.524Z,14.60
2022-09-05T06:46:02.706Z,16.50
2022-09-05T06:47:24.266Z,15.40
2022-09-05T06:48:02.616Z,16.50
2022-09-05T06:49:28.367Z,15.70
2022-09-05T06:50:23.737Z,14.30
2022-09-05T06:51:08.166Z,17.80
2022-09-05T06:52:21.565Z,15.10
2022-09-05T06:53:05.435Z,14.60
2022-09-05T06:54:02.514Z,16.80
2022-09-05T06:55:02.500Z,15.10
2022-09-05T06:56:02.478Z,16.50
2022-09-05T06:57:02.459Z,15.60
2022-09-05T06:58:02.443Z,13.80
2022-09-05T06:59:05.548Z,17.70
2022-09-05T07:00:02.419Z,14.30
2022-09-05T07:01:02.499Z,14.00
2022-09-05T07:02:02.487Z,15.30
2022-09-05T07:03:02.399Z,16.10
2022-09-05T07:05:14.729Z,14.20
2022-09-05T07:05:37.797Z,14.00
2022-09-05T07:06:02.304Z,12.70
2022-09-05T07:07:06.520Z,19.90
2022-09-05T07:08:17.076Z,13.50
2022-09-05T07:09:02.249Z,14.00
2022-09-05T07:10:16.682Z,12.70
2022-09-05T07:11:11.917Z,15.70
2022-09-05T07:12:02.201Z,14.30
2022-09-05T07:13:02.180Z,15.40
2022-09-05T07:14:02.219Z,13.90
2022-09-05T07:15:08.607Z,14.30
2022-09-05T07:16:02.188Z,17.60
2022-09-05T07:17:02.140Z,15.90
2022-09-05T07:18:10.820Z,13.00
2022-09-05T07:19:03.350Z,14.50
2022-09-05T07:20:02.061Z,14.30
2022-09-05T07:21:15.767Z,12.40
2022-09-05T07:22:02.102Z,14.00
2022-09-05T07:23:16.905Z,14.80
2022-09-05T07:24:09.505Z,16.40
2022-09-05T07:25:01.979Z,12.60
2022-09-05T07:26:01.956Z,14.70
2022-09-05T07:27:01.938Z,13.70
2022-09-05T07:28:28.601Z,13.70
2022-09-05T07:29:01.908Z,13.00
2022-09-05T07:30:02.186Z,15.00
2022-09-05T07:31:02.001Z,11.10
2022-09-05T07:32:02.046Z,12.60
2022-09-05T07:33:01.850Z,14.20
2022-09-05T07:34:01.819Z,12.80
2022-09-05T07:35:01.805Z,11.70
2022-09-05T07:36:01.784Z,12.10
2022-09-05T07:37:15.927Z,13.80
2022-09-05T07:38:01.753Z,12.80
2022-09-05T07:39:25.184Z,12.00
2022-09-05T07:40:11.497Z,11.10
2022-09-05T07:41:01.700Z,13.40
2022-09-05T07:42:01.680Z,10.30
2022-09-05T07:43:08.754Z,12.70
2022-09-05T07:44:01.650Z,13.30
2022-09-05T07:45:01.626Z,14.10
2022-09-05T07:46:01.685Z,11.50
2022-09-05T07:47:01.596Z,11.70
2022-09-05T07:48:01.579Z,14.60
2022-09-05T07:49:01.561Z,12.00
2022-09-05T07:51:42.913Z,12.30
2022-09-05T07:54:36.686Z,11.90
2022-09-05T07:56:49.058Z,12.80
2022-09-05T07:56:52.335Z,12.60
2022-09-05T07:56:52.335Z,10.40
2022-09-05T07:57:06.380Z,11.90
2022-09-05T07:57:08.833Z,12.60
2022-09-05T07:57:32.230Z,12.50
2022-09-05T07:58:01.410Z,12.30
2022-09-05T07:59:01.393Z,10.50
2022-09-05T08:00:01.378Z,10.90
2022-09-05T08:01:01.443Z,10.00
2022-09-05T08:02:01.351Z,10.30
2022-09-05T08:03:01.337Z,10.00
2022-09-05T08:04:05.881Z,10.00
2022-09-05T08:05:01.336Z,10.30
2022-09-05T08:06:01.276Z,9.90
2022-09-05T08:07:47.650Z,10.70
2022-09-05T08:08:01.240Z,11.20
2022-09-05T08:09:21.606Z,9.40
2022-09-05T08:10:08.701Z,10.60
2022-09-05T08:11:25.743Z,8.70
2022-09-05T08:12:09.423Z,10.50
2022-09-05T08:13:24.067Z,11.30
2022-09-05T08:14:38.357Z,11.90
2022-09-05T08:15:01.125Z,10.00
2022-09-05T08:16:12.926Z,10.60
2022-09-05T08:17:01.145Z,10.10
2022-09-05T08:18:01.139Z,11.10
2022-09-05T08:19:01.055Z,10.00
2022-09-05T08:20:08.283Z,9.10
2022-09-05T08:21:01.066Z,9.40
2022-09-05T08:22:01.008Z,9.20
2022-09-05T08:23:00.993Z,10.90
2022-09-05T08:24:00.976Z,9.10
2022-09-05T08:25:00.956Z,10.70
2022-09-05T08:26:00.942Z,12.40
2022-09-05T08:27:00.924Z,9.30
2022-09-05T08:28:00.909Z,10.60
2022-09-05T08:29:00.891Z,9.50
2022-09-05T08:30:25.783Z,10.30
2022-09-05T08:31:00.904Z,9.70
2022-09-05T08:32:00.845Z,10.30
2022-09-05T08:33:10.307Z,16.70
2022-09-05T08:34:04.834Z,9.50
2022-09-05T08:35:04.815Z,8.70
2022-09-05T08:36:04.805Z,8.40
2022-09-05T08:37:04.785Z,9.50
2022-09-05T08:38:04.770Z,9.00
2022-09-05T08:39:04.751Z,8.00
2022-09-05T08:40:11.650Z,9.10
2022-09-05T08:41:04.719Z,7.30
2022-09-05T08:42:06.151Z,6.90
2022-09-05T08:46:10.216Z,9.40
2022-09-05T08:46:40.457Z,10.00
2022-09-05T08:46:42.502Z,9.60
2022-09-05T08:46:46.068Z,6.70
2022-09-05T08:47:04.728Z,9.30
2022-09-05T08:48:04.654Z,8.60
2022-09-05T08:49:09.740Z,8.20
2022-09-05T08:50:04.586Z,7.20
2022-09-05T08:51:04.560Z,5.80
2022-09-05T08:52:04.545Z,8.50
2022-09-05T08:53:04.528Z,7.00
2022-09-05T08:54:04.607Z,7.40
2022-09-05T08:55:07.407Z,8.20
2022-09-05T08:56:04.482Z,7.80
2022-09-05T08:57:04.472Z,6.00
2022-09-05T08:58:04.456Z,5.80
2022-09-05T08:59:32.222Z,6.30
2022-09-05T09:00:18.627Z,8.30
2022-09-05T09:01:04.734Z,8.10
2022-09-05T09:02:46.252Z,6.80
2022-09-05T09:03:05.033Z,9.00
2022-09-05T09:04:04.409Z,6.80
2022-09-05T09:05:04.340Z,6.00
2022-09-05T09:06:13.344Z,5.90
2022-09-05T09:07:26.256Z,6.30
2022-09-05T09:08:04.295Z,6.70
2022-09-05T09:09:05.848Z,5.70
2022-09-05T09:10:04.263Z,6.70
2022-09-05T09:11:04.244Z,4.70
2022-09-05T09:12:04.236Z,7.40
2022-09-05T09:13:04.214Z,5.30
2022-09-05T09:14:04.274Z,4.70
2022-09-05T09:15:04.185Z,5.90
2022-09-05T09:16:04.218Z,6.20
2022-09-05T09:17:04.152Z,5.20
2022-09-05T09:18:06.461Z,4.80
2022-09-05T09:19:04.123Z,5.90
2022-09-05T09:20:04.110Z,4.50
2022-09-05T09:21:04.093Z,6.00
2022-09-05T09:22:04.077Z,3.70
2022-09-05T09:23:04.089Z,4.30
2022-09-05T09:24:04.047Z,5.30
2022-09-05T09:25:08.753Z,5.10
2022-09-05T09:26:04.653Z,6.50
2022-09-05T09:27:03.999Z,5.80
2022-09-05T09:28:48.916Z,4.30
2022-09-05T09:29:03.967Z,4.50
2022-09-05T09:30:03.954Z,4.10
2022-09-05T09:31:04.007Z,5.50
2022-09-05T09:32:03.929Z,5.30
2022-09-05T09:33:03.908Z,5.20
2022-09-05T09:34:03.890Z,5.50
2022-09-05T09:35:05.493Z,4.80
2022-09-05T09:36:03.864Z,4.50
2022-09-05T09:37:03.845Z,4.30
2022-09-05T09:38:03.832Z,4.60
2022-09-05T09:39:11.855Z,4.20
2022-09-05T09:40:03.871Z,6.40
2022-09-05T09:41:03.786Z,3.20
2022-09-05T09:42:03.884Z,3.90
2022-09-05T09:43:06.925Z,6.60
2022-09-05T09:44:03.743Z,4.70
2022-09-05T09:45:28.235Z,5.20
2022-09-05T09:46:03.741Z,4.90
2022-09-05T09:47:03.698Z,4.00
2022-09-05T09:48:03.683Z,5.60
2022-09-05T09:49:03.665Z,5.10
2022-09-05T09:50:03.650Z,5.70
2022-09-05T09:51:03.939Z,3.20
2022-09-05T09:52:03.624Z,3.60
2022-09-05T09:53:03.606Z,5.90
2022-09-05T09:54:03.592Z,3.10
2022-09-05T09:55:03.577Z,6.70
2022-09-05T09:56:06.775Z,4.80
2022-09-05T09:57:03.547Z,5.60
2022-09-05T09:58:03.532Z,4.30
2022-09-05T09:59:03.517Z,3.60
2022-09-05T10:00:03.510Z,6.30
2022-09-05T10:01:03.488Z,4.60
2022-09-05T10:02:29.118Z,3.20
2022-09-05T10:07:04.650Z,3.40
2022-09-05T10:10:14.957Z,5.20
2022-09-05T10:10:39.862Z,3.20
2022-09-05T10:10:43.513Z,4.00
2022-09-05T10:10:44.654Z,4.50
2022-09-05T10:10:46.918Z,2.90
2022-09-05T10:10:51.317Z,4.70
2022-09-05T10:10:52.609Z,4.90
2022-09-05T10:12:04.071Z,4.30
2022-09-05T10:13:08.720Z,4.90
2022-09-05T10:14:03.313Z,3.00
2022-09-05T10:15:13.246Z,4.20
2022-09-05T10:16:04.358Z,3.80
2022-09-05T10:17:03.322Z,2.80
2022-09-05T10:18:03.266Z,4.90
2022-09-05T10:19:03.244Z,3.40
2022-09-05T10:20:08.931Z,2.90
2022-09-05T10:21:16.191Z,5.10
2022-09-05T10:23:03.191Z,3.70
2022-09-05T10:24:03.180Z,6.00
2022-09-05T10:25:18.501Z,3.20
2022-09-05T10:26:03.216Z,4.00
2022-09-05T10:27:03.150Z,2.80
2022-09-05T10:28:03.129Z,3.40
2022-09-05T10:29:34.981Z,3.20
2022-09-05T10:30:03.336Z,4.00
2022-09-05T10:33:09.064Z,2.90
2022-09-05T10:35:08.775Z,2.90
2022-09-05T10:35:09.879Z,2.90
2022-09-05T10:35:10.991Z,6.60
2022-09-05T10:35:21.103Z,3.80
2022-09-05T10:36:03.105Z,3.50
2022-09-05T10:37:03.324Z,3.40
2022-09-05T10:38:06.349Z,2.90
2022-09-05T10:39:02.991Z,2.20
2022-09-05T10:40:03.154Z,3.10
2022-09-05T10:41:21.282Z,3.50
2022-09-05T10:42:03.564Z,3.40
2022-09-05T10:43:02.939Z,3.90
2022-09-05T10:44:03.465Z,2.90
2022-09-05T10:45:02.968Z,3.40
2022-09-05T10:46:02.958Z,3.00
2022-09-05T10:47:02.957Z,2.70
2022-09-05T10:48:13.257Z,2.10
2022-09-05T10:49:02.873Z,2.70
2022-09-05T10:50:02.862Z,3.30
2022-09-05T10:51:02.845Z,3.50
2022-09-05T10:52:13.145Z,2.50
2022-09-05T10:53:02.824Z,2.40
2022-09-05T10:54:02.811Z,3.10
2022-09-05T10:55:14.581Z,3.50
2022-09-05T10:56:02.788Z,2.70
2022-09-05T10:57:02.776Z,2.60
2022-09-05T10:58:02.759Z,2.60
2022-09-05T11:02:19.091Z,4.90
2022-09-05T11:02:19.955Z,2.40
2022-09-05T11:02:21.587Z,3.60
2022-09-05T11:02:22.750Z,2.50
2022-09-05T11:03:02.832Z,3.30
2022-09-05T11:04:02.792Z,2.60
2022-09-05T11:05:02.714Z,2.20
2022-09-05T11:06:09.206Z,4.10
2022-09-05T11:07:02.651Z,3.10
2022-09-05T11:08:02.643Z,2.40
2022-09-05T11:09:02.626Z,3.90
2022-09-05T11:10:02.617Z,2.40
2022-09-05T11:11:02.635Z,2.20
2022-09-05T11:12:02.597Z,2.80
2022-09-05T11:13:02.581Z,2.70
2022-09-05T11:14:02.685Z,3.50
2022-09-05T11:15:02.558Z,3.50
2022-09-05T11:16:04.992Z,3.90
2022-09-05T11:17:02.531Z,2.90
2022-09-05T11:18:02.523Z,3.50
2022-09-05T11:19:02.507Z,4.80
2022-09-05T11:20:02.498Z,4.10
2022-09-05T11:21:02.485Z,3.20
2022-09-05T11:22:05.260Z,2.90
2022-09-05T11:23:02.460Z,2.50
2022-09-05T11:24:02.450Z,3.10
2022-09-05T11:25:02.438Z,3.30
2022-09-05T11:26:02.428Z,3.60
2022-09-05T11:27:23.681Z,4.50
2022-09-05T11:28:02.402Z,2.20
2022-09-05T11:29:02.569Z,5.40
2022-09-05T11:30:02.377Z,3.00
2022-09-05T11:31:02.446Z,4.00
2022-09-05T11:34:21.113Z,3.50
2022-09-05T11:38:35.500Z,3.10
2022-09-05T11:39:39.529Z,4.40
2022-09-05T11:39:46.605Z,2.60
2022-09-05T11:39:50.314Z,3.40
2022-09-05T11:39:50.726Z,4.00
2022-09-05T11:40:00.164Z,2.60
2022-09-05T11:40:10.550Z,3.30
2022-09-05T11:40:29.181Z,3.70
2022-09-05T11:41:10.063Z,3.20
2022-09-05T11:42:02.284Z,3.20
2022-09-05T11:43:02.268Z,3.40
2022-09-05T11:44:24.623Z,3.40
2022-09-05T11:45:02.256Z,2.70
2022-09-05T11:46:02.230Z,3.00
2022-09-05T11:47:28.200Z,4.40
2022-09-05T11:48:02.189Z,3.00
2022-09-05T11:49:02.156Z,2.80
2022-09-05T11:50:02.173Z,3.50
2022-09-05T11:51:02.260Z,2.90
2022-09-05T11:52:02.121Z,5.10
2022-09-05T11:53:02.138Z,4.20
2022-09-05T11:54:02.212Z,2.90
2022-09-05T11:55:02.086Z,3.10
2022-09-05T11:56:02.126Z,3.20
2022-09-05T11:57:06.483Z,2.70
2022-09-05T11:58:02.048Z,2.90
2022-09-05T11:59:04.810Z,3.10
2022-09-05T12:00:30.543Z,3.40
2022-09-05T12:01:41.568Z,3.90
2022-09-05T12:02:11.022Z,4.00
2022-09-05T12:03:02.016Z,3.80
2022-09-05T12:04:04.656Z,3.30
2022-09-05T12:05:51.165Z,3.20
2022-09-05T12:06:02.032Z,3.70
2022-09-05T12:07:01.941Z,3.50
2022-09-05T12:08:01.943Z,4.60
2022-09-05T12:09:01.925Z,2.40
2022-09-05T12:10:01.916Z,3.70
2022-09-05T12:11:01.872Z,3.00
2022-09-05T12:12:01.875Z,3.30
2022-09-05T12:13:01.846Z,2.90
2022-09-05T12:14:01.945Z,3.80
2022-09-05T12:15:04.369Z,4.20
2022-09-05T12:16:08.363Z,3.10
2022-09-05T12:17:01.798Z,3.40
2022-09-05T12:18:01.795Z,3.60
2022-09-05T12:19:06.173Z,4.70
2022-09-05T12:20:01.806Z,4.40
2022-09-05T12:21:01.745Z,5.10
2022-09-05T12:22:02.514Z,4.50
2022-09-05T12:23:01.713Z,3.80
2022-09-05T12:25:24.712Z,5.10
2022-09-05T12:25:25.849Z,4.00
2022-09-05T12:27:36.058Z,5.40
2022-09-05T12:27:40.098Z,3.40
2022-09-05T12:29:25.892Z,3.30
2022-09-05T12:29:32.787Z,3.40
2022-09-05T12:30:02.093Z,3.40
2022-09-05T12:32:30.819Z,4.30
2022-09-05T12:32:53.883Z,6.30
2022-09-05T12:36:03.896Z,4.10
2022-09-05T12:36:08.392Z,4.90
2022-09-05T12:39:52.191Z,2.90
2022-09-05T12:40:38.364Z,4.40
2022-09-05T12:40:43.590Z,4.30
2022-09-05T12:41:11.261Z,3.20
2022-09-05T12:41:35.011Z,4.10
2022-09-05T12:41:45.125Z,3.80
2022-09-05T12:42:09.753Z,3.90
2022-09-05T12:42:14.612Z,2.90
2022-09-05T12:44:29.972Z,4.10
2022-09-05T12:44:40.157Z,3.80
2022-09-05T12:45:02.223Z,2.80
2022-09-05T12:46:01.425Z,5.10
2022-09-05T12:47:18.905Z,4.00
2022-09-05T12:48:01.399Z,3.30
2022-09-05T12:49:06.733Z,4.00
2022-09-05T12:50:02.627Z,3.10
2022-09-05T12:51:01.368Z,3.80
2022-09-05T12:52:01.337Z,4.90
2022-09-05T12:53:01.334Z,4.00
2022-09-05T12:54:01.336Z,3.30
2022-09-05T12:55:01.298Z,4.20
2022-09-05T12:56:49.973Z,3.80
2022-09-05T12:59:40.241Z,4.00
2022-09-05T13:02:57.343Z,2.70
2022-09-05T13:02:57.666Z,2.80
2022-09-05T13:03:02.011Z,2.90
2022-09-05T13:03:02.326Z,3.50
2022-09-05T13:03:13.607Z,3.40
2022-09-05T13:03:27.858Z,5.40
2022-09-05T13:04:19.099Z,4.00
2022-09-05T13:05:02.554Z,2.70
2022-09-05T13:06:01.280Z,3.90
2022-09-05T13:07:01.166Z,3.40
2022-09-05T13:08:01.170Z,2.60
2022-09-05T13:09:01.154Z,2.80
2022-09-05T13:13:56.630Z,3.40
2022-09-05T13:14:46.573Z,3.20
2022-09-05T13:14:50.629Z,3.70
2022-09-05T13:14:52.984Z,2.10
2022-09-05T13:14:56.581Z,3.10
2022-09-05T13:15:11.538Z,3.40